Mayville, ND

7:34 AM CST on January 27, 2015 (GMT -0600)
Grand Forks International | Change Station
CLOSE
Current Station
Airport
Location: Grand Forks,
Elevation: 843 ft
Nearby Weather Stations

Elev 843 ft 47.95 °N, 97.18 °W | Updated 41 minutes ago

Fog
Fog
26 °F
Feels Like 15 °F
N
13
Wind Variable Wind from South

Today
High -- | Low -- °F
--% Chance of Precip.
Yesterday
High -- | Low -- °F
Precip. -- in
8:01 AM 5:22 PM
First Quarter, 54% visible
Pressure 30.07 in
Visibility 0.8 miles
Clouds Overcast 200 ft
Windchill 15 °F
Dew Point 25 °F
Humidity 96%
Rainfall 0.00 in
Snow Depth Not available.
UV 0 out of 12
Pollen .10 out of 12
Air Quality Not available.
Flu Activity Not available.
METAR KGFK 271253Z 17011KT 3/4SM BR OVC002 M03/M04 A3003 RMK AO2 SLP183 T10331039

More Conditions Fewer Conditions

Pressure 30.07 in
Visibility 0.8 miles
Clouds Overcast 200 ft
Windchill 15 °F
Dew Point 25 °F
Humidity 96%
Rainfall 0.00 in
Snow Depth Not available.
UV 0 out of 12
Pollen .10 out of 12
Air Quality Not available.
Flu Activity Not available.
METAR KGFK 271253Z 17011KT 3/4SM BR OVC002 M03/M04 A3003 RMK AO2 SLP183 T10331039

More Conditions Fewer Conditions

Nowcast | as of 5:36 am CST on January 27, 2015

Areas of dense fog can be expected across the region through mid morning. Visibility limited to a half mile or less will be common for the the morning commute. Allow extra time to reach your destination this morning.

×

10-Day Weather Forecast

Almanac

Astronomy

Jan. 27, 2015 Rise Set
Actual Time
Civil Twilight
Nautical Twilight
Astronomical Twilight
Moon
Length of Visible Light
Length of Day
Tomorrow will be .
, % of the Moon is Illuminated

Today's Extremes

State Highs State Lows

Community

WunderPhotos

Upload Photos

1,790,614 photos uploaded!

WunderBlogs® & News

Nearby

Air Quality

  Air Quality AQ Index Pollutant
Not available.

Snow Depth

Station Depth Elevation

Earthquake Activity

City Distance Mag. Time & Date
Minimum magnitude displayed is 2.5.

Coastal Water Temperatures

Place Temperature

Nearby Weather Stations